sensor_id;sensor_type;location;lat;lon;timestamp;P1;durP1;ratioP1;P2;durP2;ratioP2
11203;SDS011;5659;49.408;11.116;2023-02-01T00:01:18;8.67;;;6.50;;
11203;SDS011;5659;49.408;11.116;2023-02-01T00:03:44;9.37;;;6.30;;
11203;SDS011;5659;49.408;11.116;2023-02-01T00:06:10;6.90;;;6.03;;
11203;SDS011;5659;49.408;11.116;2023-02-01T00:08:36;8.60;;;5.90;;
11203;SDS011;5659;49.408;11.116;2023-02-01T00:11:03;8.10;;;6.83;;
11203;SDS011;5659;49.408;11.116;2023-02-01T00:13:30;10.03;;;6.53;;
11203;SDS011;5659;49.408;11.116;2023-02-01T00:16:09;10.53;;;6.73;;
11203;SDS011;5659;49.408;11.116;2023-02-01T00:18:41;8.37;;;5.57;;
11203;SDS011;5659;49.408;11.116;2023-02-01T00:21:09;8.47;;;6.83;;
11203;SDS011;5659;49.408;11.116;2023-02-01T00:23:36;8.80;;;6.33;;
11203;SDS011;5659;49.408;11.116;2023-02-01T00:26:03;9.57;;;6.70;;
11203;SDS011;5659;49.408;11.116;2023-02-01T00:28:29;9.50;;;7.03;;
11203;SDS011;5659;49.408;11.116;2023-02-01T00:30:56;7.87;;;6.80;;
11203;SDS011;5659;49.408;11.116;2023-02-01T00:33:22;10.27;;;7.07;;
11203;SDS011;5659;49.408;11.116;2023-02-01T00:35:48;9.00;;;6.90;;
11203;SDS011;5659;49.408;11.116;2023-02-01T00:38:14;8.80;;;7.10;;
11203;SDS011;5659;49.408;11.116;2023-02-01T00:40:40;8.80;;;6.83;;
11203;SDS011;5659;49.408;11.116;2023-02-01T00:43:06;9.33;;;6.80;;
11203;SDS011;5659;49.408;11.116;2023-02-01T00:45:32;8.57;;;7.00;;
11203;SDS011;5659;49.408;11.116;2023-02-01T00:47:58;10.07;;;6.63;;
11203;SDS011;5659;49.408;11.116;2023-02-01T00:50:24;8.50;;;6.17;;
11203;SDS011;5659;49.408;11.116;2023-02-01T00:52:50;9.00;;;6.70;;
11203;SDS011;5659;49.408;11.116;2023-02-01T00:55:16;8.03;;;6.60;;
11203;SDS011;5659;49.408;11.116;2023-02-01T00:57:42;9.83;;;6.43;;
11203;SDS011;5659;49.408;11.116;2023-02-01T01:00:08;11.90;;;6.83;;
11203;SDS011;5659;49.408;11.116;2023-02-01T01:02:34;8.93;;;6.60;;
11203;SDS011;5659;49.408;11.116;2023-02-01T01:05:00;8.27;;;6.70;;
11203;SDS011;5659;49.408;11.116;2023-02-01T01:07:27;8.33;;;6.50;;
11203;SDS011;5659;49.408;11.116;2023-02-01T01:09:53;6.93;;;6.17;;
11203;SDS011;5659;49.408;11.116;2023-02-01T01:12:19;10.67;;;6.50;;
11203;SDS011;5659;49.408;11.116;2023-02-01T01:14:45;9.70;;;6.90;;
11203;SDS011;5659;49.408;11.116;2023-02-01T01:17:11;8.20;;;6.93;;
11203;SDS011;5659;49.408;11.116;2023-02-01T01:19:37;8.87;;;6.53;;
11203;SDS011;5659;49.408;11.116;2023-02-01T01:22:03;8.77;;;6.57;;
11203;SDS011;5659;49.408;11.116;2023-02-01T01:24:29;8.53;;;6.90;;
11203;SDS011;5659;49.408;11.116;2023-02-01T01:26:55;10.90;;;7.43;;
11203;SDS011;5659;49.408;11.116;2023-02-01T01:29:21;10.57;;;7.27;;
11203;SDS011;5659;49.408;11.116;2023-02-01T01:31:47;7.93;;;6.43;;
11203;SDS011;5659;49.408;11.116;2023-02-01T01:34:13;9.70;;;6.93;;
11203;SDS011;5659;49.408;11.116;2023-02-01T01:36:39;8.63;;;6.33;;
11203;SDS011;5659;49.408;11.116;2023-02-01T01:39:05;8.77;;;7.30;;
11203;SDS011;5659;49.408;11.116;2023-02-01T01:41:31;10.97;;;7.27;;
11203;SDS011;5659;49.408;11.116;2023-02-01T01:43:59;13.50;;;7.40;;
11203;SDS011;5659;49.408;11.116;2023-02-01T01:46:26;10.23;;;6.93;;
11203;SDS011;5659;49.408;11.116;2023-02-01T01:48:58;10.77;;;7.40;;
11203;SDS011;5659;49.408;11.116;2023-02-01T01:51:25;11.07;;;6.77;;
11203;SDS011;5659;49.408;11.116;2023-02-01T01:53:54;9.20;;;7.20;;
11203;SDS011;5659;49.408;11.116;2023-02-01T01:56:21;9.23;;;6.80;;
11203;SDS011;5659;49.408;11.116;2023-02-01T01:58:47;8.93;;;6.63;;
11203;SDS011;5659;49.408;11.116;2023-02-01T02:01:13;9.30;;;6.93;;
11203;SDS011;5659;49.408;11.116;2023-02-01T02:03:43;10.50;;;6.70;;
11203;SDS011;5659;49.408;11.116;2023-02-01T02:06:22;8.00;;;6.73;;
11203;SDS011;5659;49.408;11.116;2023-02-01T02:08:51;9.20;;;6.20;;
11203;SDS011;5659;49.408;11.116;2023-02-01T02:11:17;7.17;;;6.47;;
11203;SDS011;5659;49.408;11.116;2023-02-01T02:13:45;7.80;;;6.57;;
11203;SDS011;5659;49.408;11.116;2023-02-01T02:24:09;7.00;;;6.20;;
11203;SDS011;5659;49.408;11.116;2023-02-01T02:29:23;7.20;;;6.33;;
11203;SDS011;5659;49.408;11.116;2023-02-01T02:34:40;7.53;;;5.93;;
11203;SDS011;5659;49.408;11.116;2023-02-01T02:37:14;6.73;;;6.07;;
11203;SDS011;5659;49.408;11.116;2023-02-01T02:39:54;6.87;;;6.17;;
11203;SDS011;5659;49.408;11.116;2023-02-01T02:50:34;11.20;;;7.20;;
11203;SDS011;5659;49.408;11.116;2023-02-01T02:56:24;9.10;;;7.80;;
11203;SDS011;5659;49.408;11.116;2023-02-01T02:59:11;11.93;;;8.03;;
11203;SDS011;5659;49.408;11.116;2023-02-01T03:01:57;9.33;;;8.10;;
11203;SDS011;5659;49.408;11.116;2023-02-01T03:04:42;11.77;;;8.60;;
11203;SDS011;5659;49.408;11.116;2023-02-01T03:07:15;10.10;;;7.90;;
11203;SDS011;5659;49.408;11.116;2023-02-01T03:09:57;9.77;;;7.90;;
11203;SDS011;5659;49.408;11.116;2023-02-01T03:12:29;10.37;;;7.87;;
11203;SDS011;5659;49.408;11.116;2023-02-01T03:15:14;11.30;;;7.47;;
11203;SDS011;5659;49.408;11.116;2023-02-01T03:17:40;10.97;;;8.00;;
11203;SDS011;5659;49.408;11.116;2023-02-01T03:20:08;9.60;;;7.83;;
11203;SDS011;5659;49.408;11.116;2023-02-01T03:22:35;9.20;;;8.13;;
11203;SDS011;5659;49.408;11.116;2023-02-01T03:25:13;10.53;;;7.63;;
11203;SDS011;5659;49.408;11.116;2023-02-01T03:27:41;10.10;;;7.80;;
11203;SDS011;5659;49.408;11.116;2023-02-01T03:30:13;14.17;;;8.33;;
11203;SDS011;5659;49.408;11.116;2023-02-01T03:32:43;14.77;;;8.73;;
11203;SDS011;5659;49.408;11.116;2023-02-01T03:41:00;13.57;;;9.17;;
11203;SDS011;5659;49.408;11.116;2023-02-01T03:43:27;13.63;;;9.23;;
11203;SDS011;5659;49.408;11.116;2023-02-01T03:45:57;11.20;;;9.00;;
11203;SDS011;5659;49.408;11.116;2023-02-01T03:48:24;12.20;;;9.50;;
11203;SDS011;5659;49.408;11.116;2023-02-01T03:50:52;11.03;;;8.90;;
11203;SDS011;5659;49.408;11.116;2023-02-01T03:53:19;14.73;;;9.70;;
11203;SDS011;5659;49.408;11.116;2023-02-01T03:55:46;12.13;;;9.80;;
11203;SDS011;5659;49.408;11.116;2023-02-01T03:58:13;14.07;;;8.80;;
11203;SDS011;5659;49.408;11.116;2023-02-01T04:00:40;14.17;;;8.80;;
11203;SDS011;5659;49.408;11.116;2023-02-01T04:03:06;11.27;;;8.70;;
11203;SDS011;5659;49.408;11.116;2023-02-01T04:05:33;10.87;;;8.60;;
11203;SDS011;5659;49.408;11.116;2023-02-01T04:07:58;12.90;;;8.63;;
11203;SDS011;5659;49.408;11.116;2023-02-01T04:10:25;17.67;;;9.57;;
11203;SDS011;5659;49.408;11.116;2023-02-01T04:12:51;14.37;;;9.20;;
11203;SDS011;5659;49.408;11.116;2023-02-01T04:15:17;9.60;;;8.03;;
11203;SDS011;5659;49.408;11.116;2023-02-01T04:17:43;10.60;;;8.77;;
11203;SDS011;5659;49.408;11.116;2023-02-01T04:20:09;11.43;;;7.87;;
11203;SDS011;5659;49.408;11.116;2023-02-01T04:22:35;11.57;;;8.47;;
11203;SDS011;5659;49.408;11.116;2023-02-01T04:25:01;12.03;;;8.77;;
11203;SDS011;5659;49.408;11.116;2023-02-01T04:27:27;9.13;;;7.50;;
11203;SDS011;5659;49.408;11.116;2023-02-01T04:29:53;10.87;;;8.07;;
11203;SDS011;5659;49.408;11.116;2023-02-01T04:32:20;11.00;;;8.13;;
11203;SDS011;5659;49.408;11.116;2023-02-01T04:34:46;13.83;;;8.33;;
11203;SDS011;5659;49.408;11.116;2023-02-01T04:37:12;8.67;;;7.23;;
11203;SDS011;5659;49.408;11.116;2023-02-01T04:39:38;12.20;;;7.60;;
11203;SDS011;5659;49.408;11.116;2023-02-01T04:42:04;10.50;;;7.37;;
11203;SDS011;5659;49.408;11.116;2023-02-01T04:44:30;10.30;;;7.80;;
11203;SDS011;5659;49.408;11.116;2023-02-01T04:46:56;11.43;;;7.77;;
11203;SDS011;5659;49.408;11.116;2023-02-01T04:49:22;9.80;;;7.70;;
11203;SDS011;5659;49.408;11.116;2023-02-01T04:51:50;13.03;;;7.70;;
11203;SDS011;5659;49.408;11.116;2023-02-01T04:54:16;13.43;;;7.57;;
11203;SDS011;5659;49.408;11.116;2023-02-01T04:56:42;16.30;;;7.70;;
11203;SDS011;5659;49.408;11.116;2023-02-01T04:59:10;10.67;;;8.20;;
11203;SDS011;5659;49.408;11.116;2023-02-01T05:01:36;12.93;;;8.17;;
11203;SDS011;5659;49.408;11.116;2023-02-01T05:04:02;14.43;;;8.97;;
11203;SDS011;5659;49.408;11.116;2023-02-01T05:06:28;18.20;;;8.50;;
11203;SDS011;5659;49.408;11.116;2023-02-01T05:08:54;18.13;;;8.97;;
11203;SDS011;5659;49.408;11.116;2023-02-01T05:11:20;14.67;;;8.83;;
11203;SDS011;5659;49.408;11.116;2023-02-01T05:14:04;11.73;;;7.93;;
11203;SDS011;5659;49.408;11.116;2023-02-01T05:16:30;15.37;;;9.00;;
11203;SDS011;5659;49.408;11.116;2023-02-01T05:18:56;13.60;;;9.00;;
11203;SDS011;5659;49.408;11.116;2023-02-01T05:21:22;16.00;;;8.90;;
11203;SDS011;5659;49.408;11.116;2023-02-01T05:23:48;19.97;;;8.90;;
11203;SDS011;5659;49.408;11.116;2023-02-01T05:26:33;18.13;;;9.30;;
11203;SDS011;5659;49.408;11.116;2023-02-01T05:28:59;15.03;;;8.83;;
11203;SDS011;5659;49.408;11.116;2023-02-01T05:31:25;14.47;;;9.37;;
11203;SDS011;5659;49.408;11.116;2023-02-01T05:33:51;13.00;;;9.17;;
11203;SDS011;5659;49.408;11.116;2023-02-01T05:36:17;17.23;;;10.33;;
11203;SDS011;5659;49.408;11.116;2023-02-01T05:38:43;16.97;;;9.60;;
11203;SDS011;5659;49.408;11.116;2023-02-01T05:41:09;14.13;;;9.43;;
11203;SDS011;5659;49.408;11.116;2023-02-01T05:43:35;27.53;;;10.90;;
11203;SDS011;5659;49.408;11.116;2023-02-01T05:46:01;14.30;;;10.30;;
11203;SDS011;5659;49.408;11.116;2023-02-01T05:48:27;17.03;;;10.57;;
11203;SDS011;5659;49.408;11.116;2023-02-01T05:50:53;21.13;;;11.33;;
11203;SDS011;5659;49.408;11.116;2023-02-01T05:53:19;27.27;;;11.23;;
11203;SDS011;5659;49.408;11.116;2023-02-01T05:55:45;17.67;;;10.67;;
11203;SDS011;5659;49.408;11.116;2023-02-01T05:58:11;18.33;;;11.53;;
11203;SDS011;5659;49.408;11.116;2023-02-01T06:00:37;15.97;;;11.67;;
11203;SDS011;5659;49.408;11.116;2023-02-01T06:03:03;18.43;;;11.87;;
11203;SDS011;5659;49.408;11.116;2023-02-01T06:05:29;19.07;;;11.97;;
11203;SDS011;5659;49.408;11.116;2023-02-01T06:07:55;21.40;;;10.77;;
11203;SDS011;5659;49.408;11.116;2023-02-01T06:10:22;12.77;;;9.83;;
11203;SDS011;5659;49.408;11.116;2023-02-01T06:12:48;9.87;;;7.77;;
11203;SDS011;5659;49.408;11.116;2023-02-01T06:15:14;10.13;;;7.03;;
11203;SDS011;5659;49.408;11.116;2023-02-01T06:17:44;11.77;;;7.43;;
11203;SDS011;5659;49.408;11.116;2023-02-01T06:20:11;9.07;;;7.23;;
11203;SDS011;5659;49.408;11.116;2023-02-01T06:22:37;10.23;;;7.90;;
11203;SDS011;5659;49.408;11.116;2023-02-01T06:25:04;14.40;;;8.23;;
11203;SDS011;5659;49.408;11.116;2023-02-01T06:27:30;13.17;;;9.57;;
11203;SDS011;5659;49.408;11.116;2023-02-01T06:29:56;9.47;;;8.50;;
11203;SDS011;5659;49.408;11.116;2023-02-01T06:32:22;14.03;;;8.17;;
11203;SDS011;5659;49.408;11.116;2023-02-01T06:34:48;11.27;;;8.03;;
11203;SDS011;5659;49.408;11.116;2023-02-01T06:37:14;12.53;;;8.60;;
11203;SDS011;5659;49.408;11.116;2023-02-01T06:39:40;12.23;;;8.27;;
11203;SDS011;5659;49.408;11.116;2023-02-01T06:42:06;10.93;;;7.60;;
11203;SDS011;5659;49.408;11.116;2023-02-01T06:44:32;12.50;;;7.83;;
11203;SDS011;5659;49.408;11.116;2023-02-01T06:46:58;17.13;;;8.13;;
11203;SDS011;5659;49.408;11.116;2023-02-01T06:49:24;16.03;;;8.53;;
11203;SDS011;5659;49.408;11.116;2023-02-01T06:51:50;15.60;;;8.10;;
11203;SDS011;5659;49.408;11.116;2023-02-01T06:54:16;10.13;;;8.07;;
11203;SDS011;5659;49.408;11.116;2023-02-01T06:56:42;8.57;;;6.70;;
11203;SDS011;5659;49.408;11.116;2023-02-01T06:59:09;8.67;;;6.87;;
11203;SDS011;5659;49.408;11.116;2023-02-01T07:01:35;10.20;;;6.73;;
11203;SDS011;5659;49.408;11.116;2023-02-01T07:04:01;8.53;;;6.70;;
11203;SDS011;5659;49.408;11.116;2023-02-01T07:06:27;8.73;;;6.03;;
11203;SDS011;5659;49.408;11.116;2023-02-01T07:08:53;7.97;;;6.13;;
11203;SDS011;5659;49.408;11.116;2023-02-01T07:11:20;7.30;;;5.80;;
11203;SDS011;5659;49.408;11.116;2023-02-01T07:13:47;7.43;;;6.37;;
11203;SDS011;5659;49.408;11.116;2023-02-01T07:16:14;6.87;;;5.77;;
11203;SDS011;5659;49.408;11.116;2023-02-01T07:18:41;7.37;;;6.10;;
11203;SDS011;5659;49.408;11.116;2023-02-01T07:21:07;9.70;;;6.00;;
11203;SDS011;5659;49.408;11.116;2023-02-01T07:23:33;8.57;;;6.53;;
11203;SDS011;5659;49.408;11.116;2023-02-01T07:26:00;10.23;;;6.73;;
11203;SDS011;5659;49.408;11.116;2023-02-01T07:28:28;11.03;;;6.93;;
11203;SDS011;5659;49.408;11.116;2023-02-01T07:30:54;7.67;;;6.67;;
11203;SDS011;5659;49.408;11.116;2023-02-01T07:33:20;11.50;;;6.97;;
11203;SDS011;5659;49.408;11.116;2023-02-01T07:35:47;11.77;;;7.13;;
11203;SDS011;5659;49.408;11.116;2023-02-01T07:38:13;12.17;;;7.70;;
11203;SDS011;5659;49.408;11.116;2023-02-01T07:40:39;10.40;;;7.17;;
11203;SDS011;5659;49.408;11.116;2023-02-01T07:43:05;9.23;;;6.57;;
11203;SDS011;5659;49.408;11.116;2023-02-01T07:45:33;11.23;;;6.80;;
11203;SDS011;5659;49.408;11.116;2023-02-01T07:47:59;11.70;;;6.87;;
11203;SDS011;5659;49.408;11.116;2023-02-01T07:50:25;9.40;;;6.43;;
11203;SDS011;5659;49.408;11.116;2023-02-01T07:52:51;8.63;;;6.33;;
11203;SDS011;5659;49.408;11.116;2023-02-01T07:55:18;8.77;;;6.93;;
11203;SDS011;5659;49.408;11.116;2023-02-01T07:57:44;9.10;;;6.20;;
11203;SDS011;5659;49.408;11.116;2023-02-01T08:00:10;14.17;;;6.27;;
11203;SDS011;5659;49.408;11.116;2023-02-01T08:02:58;10.57;;;5.93;;
11203;SDS011;5659;49.408;11.116;2023-02-01T08:05:24;9.20;;;6.37;;
11203;SDS011;5659;49.408;11.116;2023-02-01T08:07:50;6.83;;;5.93;;
11203;SDS011;5659;49.408;11.116;2023-02-01T08:10:17;12.03;;;5.63;;
11203;SDS011;5659;49.408;11.116;2023-02-01T08:12:43;10.97;;;5.83;;
11203;SDS011;5659;49.408;11.116;2023-02-01T08:15:14;10.73;;;5.63;;
11203;SDS011;5659;49.408;11.116;2023-02-01T08:17:45;14.47;;;5.10;;
11203;SDS011;5659;49.408;11.116;2023-02-01T08:20:12;13.80;;;5.40;;
11203;SDS011;5659;49.408;11.116;2023-02-01T08:22:38;9.40;;;5.03;;
11203;SDS011;5659;49.408;11.116;2023-02-01T08:25:04;8.87;;;4.77;;
11203;SDS011;5659;49.408;11.116;2023-02-01T08:27:32;12.20;;;5.47;;
11203;SDS011;5659;49.408;11.116;2023-02-01T08:29:58;9.73;;;5.30;;
11203;SDS011;5659;49.408;11.116;2023-02-01T08:32:24;10.20;;;4.50;;
11203;SDS011;5659;49.408;11.116;2023-02-01T08:34:50;9.87;;;4.70;;
11203;SDS011;5659;49.408;11.116;2023-02-01T08:37:16;10.10;;;4.77;;
11203;SDS011;5659;49.408;11.116;2023-02-01T08:39:42;8.17;;;4.33;;
11203;SDS011;5659;49.408;11.116;2023-02-01T08:42:09;6.10;;;4.37;;
11203;SDS011;5659;49.408;11.116;2023-02-01T08:44:54;5.63;;;3.63;;
11203;SDS011;5659;49.408;11.116;2023-02-01T08:47:20;8.07;;;4.07;;
11203;SDS011;5659;49.408;11.116;2023-02-01T08:49:46;9.07;;;4.60;;
11203;SDS011;5659;49.408;11.116;2023-02-01T08:52:12;10.17;;;3.73;;
11203;SDS011;5659;49.408;11.116;2023-02-01T08:54:38;11.50;;;4.40;;
11203;SDS011;5659;49.408;11.116;2023-02-01T08:57:05;8.10;;;4.27;;
11203;SDS011;5659;49.408;11.116;2023-02-01T08:59:31;12.40;;;4.30;;
11203;SDS011;5659;49.408;11.116;2023-02-01T09:01:57;10.03;;;4.37;;
11203;SDS011;5659;49.408;11.116;2023-02-01T09:04:23;11.33;;;4.13;;
11203;SDS011;5659;49.408;11.116;2023-02-01T09:06:49;8.47;;;4.60;;
11203;SDS011;5659;49.408;11.116;2023-02-01T09:09:15;7.13;;;4.30;;
11203;SDS011;5659;49.408;11.116;2023-02-01T09:11:41;8.70;;;5.20;;
11203;SDS011;5659;49.408;11.116;2023-02-01T09:14:07;8.53;;;4.10;;
11203;SDS011;5659;49.408;11.116;2023-02-01T09:16:33;9.97;;;4.60;;
11203;SDS011;5659;49.408;11.116;2023-02-01T09:18:59;8.80;;;5.40;;
11203;SDS011;5659;49.408;11.116;2023-02-01T09:21:25;11.33;;;4.70;;
11203;SDS011;5659;49.408;11.116;2023-02-01T09:23:51;10.27;;;5.20;;
11203;SDS011;5659;49.408;11.116;2023-02-01T09:26:17;8.00;;;4.40;;
11203;SDS011;5659;49.408;11.116;2023-02-01T09:28:43;8.07;;;5.07;;
11203;SDS011;5659;49.408;11.116;2023-02-01T09:31:09;6.67;;;4.30;;
11203;SDS011;5659;49.408;11.116;2023-02-01T09:33:35;9.17;;;3.63;;
11203;SDS011;5659;49.408;11.116;2023-02-01T09:36:02;8.83;;;3.20;;
11203;SDS011;5659;49.408;11.116;2023-02-01T09:38:29;7.20;;;3.30;;
11203;SDS011;5659;49.408;11.116;2023-02-01T09:40:55;7.57;;;3.50;;
11203;SDS011;5659;49.408;11.116;2023-02-01T09:46:18;16.33;;;3.53;;
11203;SDS011;5659;49.408;11.116;2023-02-01T09:48:45;11.93;;;3.50;;
11203;SDS011;5659;49.408;11.116;2023-02-01T09:51:16;12.60;;;3.67;;
11203;SDS011;5659;49.408;11.116;2023-02-01T09:53:47;11.70;;;3.40;;
11203;SDS011;5659;49.408;11.116;2023-02-01T09:56:20;9.40;;;3.13;;
11203;SDS011;5659;49.408;11.116;2023-02-01T09:58:47;7.17;;;2.90;;
11203;SDS011;5659;49.408;11.116;2023-02-01T10:01:21;11.30;;;3.10;;
11203;SDS011;5659;49.408;11.116;2023-02-01T10:03:48;10.67;;;3.47;;
11203;SDS011;5659;49.408;11.116;2023-02-01T10:14:33;12.23;;;3.97;;
11203;SDS011;5659;49.408;11.116;2023-02-01T10:22:00;11.43;;;4.63;;
11203;SDS011;5659;49.408;11.116;2023-02-01T10:24:31;13.10;;;5.60;;
11203;SDS011;5659;49.408;11.116;2023-02-01T10:29:34;15.20;;;5.43;;
11203;SDS011;5659;49.408;11.116;2023-02-01T10:32:02;14.53;;;5.37;;
11203;SDS011;5659;49.408;11.116;2023-02-01T10:34:33;20.53;;;6.13;;
11203;SDS011;5659;49.408;11.116;2023-02-01T10:37:01;15.43;;;5.63;;
11203;SDS011;5659;49.408;11.116;2023-02-01T10:39:33;19.57;;;6.20;;
11203;SDS011;5659;49.408;11.116;2023-02-01T10:41:59;17.67;;;5.67;;
11203;SDS011;5659;49.408;11.116;2023-02-01T10:44:26;16.10;;;5.20;;
11203;SDS011;5659;49.408;11.116;2023-02-01T10:46:53;16.17;;;5.37;;
11203;SDS011;5659;49.408;11.116;2023-02-01T10:52:10;17.73;;;5.70;;
11203;SDS011;5659;49.408;11.116;2023-02-01T10:54:38;14.77;;;4.90;;
11203;SDS011;5659;49.408;11.116;2023-02-01T10:57:23;19.87;;;5.60;;
11203;SDS011;5659;49.408;11.116;2023-02-01T10:59:51;18.17;;;4.90;;
11203;SDS011;5659;49.408;11.116;2023-02-01T11:02:24;15.33;;;5.30;;
11203;SDS011;5659;49.408;11.116;2023-02-01T11:04:58;18.27;;;5.67;;
11203;SDS011;5659;49.408;11.116;2023-02-01T11:07:24;17.40;;;5.03;;
11203;SDS011;5659;49.408;11.116;2023-02-01T11:09:53;17.53;;;5.97;;
11203;SDS011;5659;49.408;11.116;2023-02-01T11:14:55;10.73;;;4.40;;
11203;SDS011;5659;49.408;11.116;2023-02-01T11:17:24;16.33;;;4.50;;
11203;SDS011;5659;49.408;11.116;2023-02-01T11:19:56;15.43;;;4.37;;
11203;SDS011;5659;49.408;11.116;2023-02-01T11:22:24;19.83;;;5.20;;
11203;SDS011;5659;49.408;11.116;2023-02-01T11:24:50;13.97;;;4.20;;
11203;SDS011;5659;49.408;11.116;2023-02-01T11:27:17;12.73;;;3.77;;
11203;SDS011;5659;49.408;11.116;2023-02-01T11:29:46;10.97;;;3.40;;
11203;SDS011;5659;49.408;11.116;2023-02-01T11:32:13;13.17;;;3.53;;
11203;SDS011;5659;49.408;11.116;2023-02-01T11:34:44;13.00;;;4.23;;
11203;SDS011;5659;49.408;11.116;2023-02-01T11:39:43;13.13;;;3.87;;
11203;SDS011;5659;49.408;11.116;2023-02-01T11:42:18;14.80;;;4.43;;
11203;SDS011;5659;49.408;11.116;2023-02-01T11:44:46;16.00;;;3.67;;
11203;SDS011;5659;49.408;11.116;2023-02-01T11:47:17;18.90;;;3.97;;
11203;SDS011;5659;49.408;11.116;2023-02-01T11:49:44;10.73;;;4.07;;
11203;SDS011;5659;49.408;11.116;2023-02-01T11:58:11;11.73;;;3.93;;
11203;SDS011;5659;49.408;11.116;2023-02-01T12:08:05;10.47;;;3.80;;
11203;SDS011;5659;49.408;11.116;2023-02-01T12:41:27;9.67;;;4.07;;
11203;SDS011;5659;49.408;11.116;2023-02-01T12:44:12;9.77;;;3.63;;
11203;SDS011;5659;49.408;11.116;2023-02-01T12:46:50;14.77;;;3.37;;
11203;SDS011;5659;49.408;11.116;2023-02-01T12:49:20;15.23;;;3.77;;
11203;SDS011;5659;49.408;11.116;2023-02-01T12:51:50;9.63;;;3.53;;
11203;SDS011;5659;49.408;11.116;2023-02-01T12:57:00;14.83;;;3.53;;
11203;SDS011;5659;49.408;11.116;2023-02-01T13:02:37;16.73;;;4.97;;
11203;SDS011;5659;49.408;11.116;2023-02-01T13:05:16;13.57;;;4.27;;
11203;SDS011;5659;49.408;11.116;2023-02-01T13:10:20;9.60;;;3.63;;
11203;SDS011;5659;49.408;11.116;2023-02-01T13:13:04;11.83;;;4.23;;
11203;SDS011;5659;49.408;11.116;2023-02-01T13:15:36;14.20;;;3.83;;
11203;SDS011;5659;49.408;11.116;2023-02-01T13:18:04;14.10;;;3.77;;
11203;SDS011;5659;49.408;11.116;2023-02-01T13:20:32;13.13;;;4.20;;
11203;SDS011;5659;49.408;11.116;2023-02-01T13:23:22;15.67;;;4.73;;
11203;SDS011;5659;49.408;11.116;2023-02-01T13:25:50;12.37;;;4.30;;
11203;SDS011;5659;49.408;11.116;2023-02-01T13:33:32;14.57;;;3.97;;
11203;SDS011;5659;49.408;11.116;2023-02-01T13:36:06;13.40;;;3.77;;
11203;SDS011;5659;49.408;11.116;2023-02-01T13:41:27;9.23;;;3.40;;
11203;SDS011;5659;49.408;11.116;2023-02-01T13:44:16;10.37;;;2.83;;
11203;SDS011;5659;49.408;11.116;2023-02-01T13:46:44;9.60;;;3.60;;
11203;SDS011;5659;49.408;11.116;2023-02-01T13:49:18;9.40;;;3.30;;
11203;SDS011;5659;49.408;11.116;2023-02-01T13:51:46;9.07;;;3.37;;
11203;SDS011;5659;49.408;11.116;2023-02-01T13:54:27;10.43;;;3.23;;
11203;SDS011;5659;49.408;11.116;2023-02-01T13:56:53;9.77;;;3.27;;
11203;SDS011;5659;49.408;11.116;2023-02-01T13:59:37;9.67;;;3.80;;
11203;SDS011;5659;49.408;11.116;2023-02-01T14:02:35;11.23;;;3.40;;
11203;SDS011;5659;49.408;11.116;2023-02-01T14:04:56;15.43;;;4.17;;
11203;SDS011;5659;49.408;11.116;2023-02-01T14:07:22;10.27;;;3.67;;
11203;SDS011;5659;49.408;11.116;2023-02-01T14:09:49;14.43;;;3.73;;
11203;SDS011;5659;49.408;11.116;2023-02-01T14:17:42;11.13;;;3.93;;
11203;SDS011;5659;49.408;11.116;2023-02-01T14:20:51;11.37;;;4.00;;
11203;SDS011;5659;49.408;11.116;2023-02-01T14:23:02;14.43;;;3.73;;
11203;SDS011;5659;49.408;11.116;2023-02-01T14:25:32;11.87;;;3.60;;
11203;SDS011;5659;49.408;11.116;2023-02-01T14:27:58;13.87;;;4.43;;
11203;SDS011;5659;49.408;11.116;2023-02-01T14:30:24;14.87;;;4.10;;
11203;SDS011;5659;49.408;11.116;2023-02-01T14:32:50;12.57;;;3.70;;
11203;SDS011;5659;49.408;11.116;2023-02-01T14:35:20;11.30;;;3.27;;
11203;SDS011;5659;49.408;11.116;2023-02-01T14:37:50;17.60;;;4.40;;
11203;SDS011;5659;49.408;11.116;2023-02-01T14:40:20;17.27;;;4.33;;
11203;SDS011;5659;49.408;11.116;2023-02-01T14:42:49;13.83;;;4.17;;
11203;SDS011;5659;49.408;11.116;2023-02-01T14:50:38;15.23;;;4.03;;
11203;SDS011;5659;49.408;11.116;2023-02-01T15:00:41;15.23;;;3.80;;
11203;SDS011;5659;49.408;11.116;2023-02-01T15:05:38;15.53;;;4.33;;
11203;SDS011;5659;49.408;11.116;2023-02-01T15:08:26;17.50;;;4.60;;
11203;SDS011;5659;49.408;11.116;2023-02-01T15:10:50;14.80;;;4.20;;
11203;SDS011;5659;49.408;11.116;2023-02-01T15:13:21;17.67;;;4.43;;
11203;SDS011;5659;49.408;11.116;2023-02-01T15:18:49;15.27;;;4.60;;
11203;SDS011;5659;49.408;11.116;2023-02-01T15:21:20;15.27;;;4.70;;
11203;SDS011;5659;49.408;11.116;2023-02-01T15:23:46;16.37;;;3.70;;
11203;SDS011;5659;49.408;11.116;2023-02-01T15:26:26;19.13;;;5.07;;
11203;SDS011;5659;49.408;11.116;2023-02-01T15:28:53;12.60;;;4.37;;
11203;SDS011;5659;49.408;11.116;2023-02-01T15:31:31;15.43;;;4.30;;
11203;SDS011;5659;49.408;11.116;2023-02-01T15:33:58;11.33;;;3.70;;
11203;SDS011;5659;49.408;11.116;2023-02-01T15:36:24;11.53;;;3.67;;
11203;SDS011;5659;49.408;11.116;2023-02-01T15:41:37;15.67;;;4.03;;
11203;SDS011;5659;49.408;11.116;2023-02-01T15:44:04;17.67;;;3.97;;
11203;SDS011;5659;49.408;11.116;2023-02-01T15:46:35;18.87;;;4.20;;
11203;SDS011;5659;49.408;11.116;2023-02-01T15:49:02;16.73;;;3.90;;
11203;SDS011;5659;49.408;11.116;2023-02-01T15:51:29;9.47;;;3.90;;
11203;SDS011;5659;49.408;11.116;2023-02-01T15:56:27;17.47;;;4.27;;
11203;SDS011;5659;49.408;11.116;2023-02-01T15:58:55;19.93;;;4.20;;
11203;SDS011;5659;49.408;11.116;2023-02-01T16:01:21;13.27;;;4.50;;
11203;SDS011;5659;49.408;11.116;2023-02-01T16:03:47;18.67;;;4.33;;
11203;SDS011;5659;49.408;11.116;2023-02-01T16:11:47;25.03;;;4.83;;
11203;SDS011;5659;49.408;11.116;2023-02-01T16:14:14;13.17;;;3.50;;
11203;SDS011;5659;49.408;11.116;2023-02-01T16:16:40;14.37;;;4.20;;
11203;SDS011;5659;49.408;11.116;2023-02-01T16:19:06;18.00;;;4.60;;
11203;SDS011;5659;49.408;11.116;2023-02-01T16:21:32;10.17;;;3.53;;
11203;SDS011;5659;49.408;11.116;2023-02-01T16:23:58;20.93;;;4.67;;
11203;SDS011;5659;49.408;11.116;2023-02-01T16:26:28;17.13;;;4.17;;
11203;SDS011;5659;49.408;11.116;2023-02-01T16:28:54;11.97;;;4.13;;
11203;SDS011;5659;49.408;11.116;2023-02-01T16:31:21;12.90;;;4.40;;
11203;SDS011;5659;49.408;11.116;2023-02-01T16:33:48;9.97;;;3.63;;
11203;SDS011;5659;49.408;11.116;2023-02-01T16:36:15;19.53;;;4.73;;
11203;SDS011;5659;49.408;11.116;2023-02-01T16:38:41;17.43;;;3.27;;
11203;SDS011;5659;49.408;11.116;2023-02-01T16:41:10;14.57;;;4.20;;
11203;SDS011;5659;49.408;11.116;2023-02-01T16:43:37;10.57;;;3.87;;
11203;SDS011;5659;49.408;11.116;2023-02-01T16:46:03;14.57;;;4.77;;
11203;SDS011;5659;49.408;11.116;2023-02-01T16:48:30;19.47;;;4.50;;
11203;SDS011;5659;49.408;11.116;2023-02-01T16:50:58;12.37;;;3.73;;
11203;SDS011;5659;49.408;11.116;2023-02-01T16:53:26;14.83;;;3.80;;
11203;SDS011;5659;49.408;11.116;2023-02-01T16:55:52;12.87;;;3.70;;
11203;SDS011;5659;49.408;11.116;2023-02-01T16:58:19;16.00;;;3.90;;
11203;SDS011;5659;49.408;11.116;2023-02-01T17:00:46;12.77;;;3.53;;
11203;SDS011;5659;49.408;11.116;2023-02-01T17:03:12;11.10;;;3.27;;
11203;SDS011;5659;49.408;11.116;2023-02-01T17:05:45;15.70;;;3.90;;
11203;SDS011;5659;49.408;11.116;2023-02-01T17:08:13;12.33;;;3.67;;
11203;SDS011;5659;49.408;11.116;2023-02-01T17:10:40;16.27;;;4.10;;
11203;SDS011;5659;49.408;11.116;2023-02-01T17:13:09;17.10;;;4.27;;
11203;SDS011;5659;49.408;11.116;2023-02-01T17:15:36;14.77;;;3.43;;
11203;SDS011;5659;49.408;11.116;2023-02-01T17:18:02;13.60;;;4.27;;